AirNav   ATP
 
 1094 users online  

73TA Reynolds Ranch Airport
Bayview, Texas, USA


FAA INFORMATION EFFECTIVE 04 JANUARY 2018

Location

FAA Identifier: 73TA
Lat/Long: 26-09-30.3300N / 097-23-19.2800W
26-09.505500N / 097-23.321333W
26.1584250 / -97.3886889
(estimated)
Elevation: 24 ft. / 7 m (estimated)
From city: 2 miles NNE of BAYVIEW, TX
Time zone: UTC -6 (UTC -5 during Daylight Saving Time)
Zip code: 78566

Airport Operations

Airport use: Private use. Permission required prior to landing
Activation date: 01/2017
Control tower: no
ARTCC: HOUSTON CENTER
FSS: SAN ANGELO FLIGHT SERVICE STATION
Attendance: 
Segmented circle: no

Airport Communications

WX ASOS at PIL (2.4 nm E): 118.525 (956-233-5740)
WX ASOS at HRL (15 nm W): PHONE 956-428-7297
WX ASOS at BRO (15 nm S): PHONE 956-546-4540

Nearby radio navigation aids

VOR radial/distance  VOR name  Freq  Var
BROr348/14.1BROWNSVILLE VORTAC116.3009E
HRLr102/14.8HARLINGEN VOR/DME109.2005E
MAMr010/24.4MATAMOROS VOR/DME114.3007E

 
NDB name  Hdg/Dist  Freq  Var  ID
DEPOO029/12.339303EBR -... .-.

Airport Services

Runway Information

Runway 2/20

Dimensions: 2000 x 50 ft. / 610 x 15 m
Surface: turf
RUNWAY 2  RUNWAY 20
Traffic pattern: leftleft

Airport Ownership and Management from official FAA records

Ownership: Privately-owned
Owner: STEPHEN REYNOLDS
27677 LOOP ROAD
BAYVIEW, TX 78566
Phone 956-330-3082
ECHOHOTEL@AOL.COM
Manager: STEPHEN REYNOLDS
27677 LOOP ROAD
BAYVIEW, TX 78566
Phone 956-330-3082

Instrument Procedures

There are no published instrument procedures at 73TA.

Some nearby airports with instrument procedures:

KPIL - Port Isabel-Cameron County Airport (2 nm E)
KHRL - Valley International Airport (15 nm W)
KBRO - Brownsville/South Padre Island International Airport (15 nm S)
T65 - Mid Valley Airport (32 nm W)
KEBG - South Texas International Airport at Edinburg (43 nm NW)
 
Loc | Ops | Rwys | IFR | FBO | Links
Com | Nav | Svcs | Stats | Notes


 
Aerial photo
No photo
 
Airport distance calculator
Flying to Reynolds Ranch Airport? Find the distance to fly.

From to 73TA

Sunrise and sunset
Times for 22-Jan-2018
 Local
(UTC-6)
 Zulu
(UTC)
Morning civil twilight06:5412:54
Sunrise07:1913:19
Sunset18:0400:04
Evening civil twilight18:2800:28

Current date and time
Zulu (UTC)  22-Jan-2018 23:35:20
Local (UTC-6)  22-Jan-2018 17:35:20
 
METAR
KPIL 
3nm E 
222253Z AUTO 02013KT 10SM CLR 19/04 A3003 RMK AO2 SLP169 T01890039
KHRL 
15nm W 
222252Z 36013KT 10SM CLR 22/M04 A3003 RMK AO2 SLP170 T02171039
KBRO 
16nm S 
222253Z 03011KT 10SM CLR 21/03 A3004 RMK AO2 SLP171 T02110033
TAF
KHRL 
15nm W 
221720Z 2218/2318 01021G27KT P6SM SCT045 FM222200 02012G20KT P6SM SKC FM230200 01004KT P6SM SKC FM231200 36006KT P6SM BKN250
KBRO 
16nm S 
222120Z 2221/2318 36013G18KT P6SM BKN200 FM230100 01006KT P6SM BKN250
NOTAMs
Click for the latest NOTAMs
NOTAMs are issued by the DoD/FAA and will open in a separate window not controlled by AirNav.

 

 
 

Would you like to see your business listed on this page?

 If your business provides an interesting product or service to pilots, flight crews, aircraft, or users of the Reynolds Ranch Airport, you should consider listing it here.  To start the listing process, click on the button below
 
Add a business
 

Other Pages about Reynolds Ranch Airport

Update a link
 
Copyright © AirNav, LLC. All rights reserved. Privacy Policy  Contact